sensor_id;sensor_type;location;lat;lon;timestamp;temperature;humidity
55693;DHT22;41590;53.366;5.212;2022-08-21T00:00:42;18.20;99.90
55693;DHT22;41590;53.366;5.212;2022-08-21T00:03:16;18.20;99.90
55693;DHT22;41590;53.366;5.212;2022-08-21T00:05:58;18.30;99.90
55693;DHT22;41590;53.366;5.212;2022-08-21T00:08:45;18.40;99.90
55693;DHT22;41590;53.366;5.212;2022-08-21T00:19:03;18.60;99.90
55693;DHT22;41590;53.366;5.212;2022-08-21T00:50:04;18.60;99.90
55693;DHT22;41590;53.366;5.212;2022-08-21T00:52:53;18.80;99.90
55693;DHT22;41590;53.366;5.212;2022-08-21T00:55:31;18.80;99.90
55693;DHT22;41590;53.366;5.212;2022-08-21T01:02:03;18.80;99.90
55693;DHT22;41590;53.366;5.212;2022-08-21T01:04:30;18.90;99.90
55693;DHT22;41590;53.366;5.212;2022-08-21T01:07:15;18.90;99.90
55693;DHT22;41590;53.366;5.212;2022-08-21T01:09:54;18.90;99.90
55693;DHT22;41590;53.366;5.212;2022-08-21T01:12:26;18.90;99.90
55693;DHT22;41590;53.366;5.212;2022-08-21T01:14:57;18.90;99.90
55693;DHT22;41590;53.366;5.212;2022-08-21T01:17:32;18.90;99.90
55693;DHT22;41590;53.366;5.212;2022-08-21T01:20:11;18.80;99.90
55693;DHT22;41590;53.366;5.212;2022-08-21T01:23:00;18.80;99.90
55693;DHT22;41590;53.366;5.212;2022-08-21T01:26:17;18.90;99.90
55693;DHT22;41590;53.366;5.212;2022-08-21T01:29:16;18.90;99.90
55693;DHT22;41590;53.366;5.212;2022-08-21T01:31:50;18.90;99.90
55693;DHT22;41590;53.366;5.212;2022-08-21T01:38:26;18.90;99.90
55693;DHT22;41590;53.366;5.212;2022-08-21T01:40:52;18.90;99.90
55693;DHT22;41590;53.366;5.212;2022-08-21T01:46:44;18.90;99.90
55693;DHT22;41590;53.366;5.212;2022-08-21T01:49:30;18.90;99.90
55693;DHT22;41590;53.366;5.212;2022-08-21T01:51:56;18.90;99.90
55693;DHT22;41590;53.366;5.212;2022-08-21T01:54:52;18.90;99.90
55693;DHT22;41590;53.366;5.212;2022-08-21T01:57:34;18.90;99.90
55693;DHT22;41590;53.366;5.212;2022-08-21T02:00:10;18.90;99.90
55693;DHT22;41590;53.366;5.212;2022-08-21T02:02:44;18.80;99.90
55693;DHT22;41590;53.366;5.212;2022-08-21T02:05:16;18.90;99.90
55693;DHT22;41590;53.366;5.212;2022-08-21T02:08:14;18.90;99.90
55693;DHT22;41590;53.366;5.212;2022-08-21T02:10:50;19.10;99.90
55693;DHT22;41590;53.366;5.212;2022-08-21T02:13:23;18.90;99.90
55693;DHT22;41590;53.366;5.212;2022-08-21T02:15:57;18.90;99.90
55693;DHT22;41590;53.366;5.212;2022-08-21T02:18:34;19.10;99.90
55693;DHT22;41590;53.366;5.212;2022-08-21T02:21:09;18.90;99.90
55693;DHT22;41590;53.366;5.212;2022-08-21T02:23:35;18.90;99.90
55693;DHT22;41590;53.366;5.212;2022-08-21T02:26:05;18.90;99.90
55693;DHT22;41590;53.366;5.212;2022-08-21T02:40:24;18.90;99.90
55693;DHT22;41590;53.366;5.212;2022-08-21T02:42:57;18.90;99.90
55693;DHT22;41590;53.366;5.212;2022-08-21T02:45:33;18.90;99.90
55693;DHT22;41590;53.366;5.212;2022-08-21T02:48:17;18.90;99.90
55693;DHT22;41590;53.366;5.212;2022-08-21T02:56:25;18.90;99.90
55693;DHT22;41590;53.366;5.212;2022-08-21T02:59:00;18.90;99.90
55693;DHT22;41590;53.366;5.212;2022-08-21T03:01:44;18.90;99.90
55693;DHT22;41590;53.366;5.212;2022-08-21T03:04:22;18.90;99.90
55693;DHT22;41590;53.366;5.212;2022-08-21T03:06:55;18.90;99.90
55693;DHT22;41590;53.366;5.212;2022-08-21T03:09:31;18.90;99.90
55693;DHT22;41590;53.366;5.212;2022-08-21T03:11:58;18.90;99.90
55693;DHT22;41590;53.366;5.212;2022-08-21T03:14:50;18.90;99.90
55693;DHT22;41590;53.366;5.212;2022-08-21T03:17:24;18.90;99.90
55693;DHT22;41590;53.366;5.212;2022-08-21T03:19:53;18.90;99.90
55693;DHT22;41590;53.366;5.212;2022-08-21T03:22:42;18.90;99.90
55693;DHT22;41590;53.366;5.212;2022-08-21T03:25:33;18.90;99.90
55693;DHT22;41590;53.366;5.212;2022-08-21T03:31:20;18.80;99.90
55693;DHT22;41590;53.366;5.212;2022-08-21T03:33:48;18.80;99.90
55693;DHT22;41590;53.366;5.212;2022-08-21T03:36:24;18.70;99.90
55693;DHT22;41590;53.366;5.212;2022-08-21T03:38:56;18.80;99.90
55693;DHT22;41590;53.366;5.212;2022-08-21T03:41:26;18.70;99.90
55693;DHT22;41590;53.366;5.212;2022-08-21T03:44:08;18.70;99.90
55693;DHT22;41590;53.366;5.212;2022-08-21T03:46:42;18.60;99.90
55693;DHT22;41590;53.366;5.212;2022-08-21T03:49:11;18.60;99.90
55693;DHT22;41590;53.366;5.212;2022-08-21T03:51:53;18.60;99.90
55693;DHT22;41590;53.366;5.212;2022-08-21T03:54:26;18.60;99.90
55693;DHT22;41590;53.366;5.212;2022-08-21T04:00:22;18.50;99.90
55693;DHT22;41590;53.366;5.212;2022-08-21T04:02:55;18.50;99.90
55693;DHT22;41590;53.366;5.212;2022-08-21T04:05:29;18.50;99.90
55693;DHT22;41590;53.366;5.212;2022-08-21T04:08:04;18.50;99.90
55693;DHT22;41590;53.366;5.212;2022-08-21T04:11:01;18.40;99.90
55693;DHT22;41590;53.366;5.212;2022-08-21T04:13:31;18.40;99.90
55693;DHT22;41590;53.366;5.212;2022-08-21T04:16:16;18.40;99.90
55693;DHT22;41590;53.366;5.212;2022-08-21T04:19:01;18.40;99.90
55693;DHT22;41590;53.366;5.212;2022-08-21T04:21:52;18.40;99.90
55693;DHT22;41590;53.366;5.212;2022-08-21T04:24:28;18.30;99.90
55693;DHT22;41590;53.366;5.212;2022-08-21T04:26:56;18.30;99.90
55693;DHT22;41590;53.366;5.212;2022-08-21T04:33:12;18.30;99.90
55693;DHT22;41590;53.366;5.212;2022-08-21T04:35:54;18.30;99.90
55693;DHT22;41590;53.366;5.212;2022-08-21T04:38:37;18.30;99.90
55693;DHT22;41590;53.366;5.212;2022-08-21T04:41:04;18.40;99.90
55693;DHT22;41590;53.366;5.212;2022-08-21T04:43:35;18.40;99.90
55693;DHT22;41590;53.366;5.212;2022-08-21T04:46:05;18.30;99.90
55693;DHT22;41590;53.366;5.212;2022-08-21T04:48:42;18.40;99.90
55693;DHT22;41590;53.366;5.212;2022-08-21T04:51:23;18.40;99.90
55693;DHT22;41590;53.366;5.212;2022-08-21T04:54:02;18.40;99.90
55693;DHT22;41590;53.366;5.212;2022-08-21T05:02:57;18.40;99.90
55693;DHT22;41590;53.366;5.212;2022-08-21T05:05:24;18.30;99.90
55693;DHT22;41590;53.366;5.212;2022-08-21T05:08:01;18.30;99.90
55693;DHT22;41590;53.366;5.212;2022-08-21T05:10:29;18.30;99.90
55693;DHT22;41590;53.366;5.212;2022-08-21T05:13:06;18.30;99.90
55693;DHT22;41590;53.366;5.212;2022-08-21T05:15:40;18.30;99.90
55693;DHT22;41590;53.366;5.212;2022-08-21T05:18:08;18.30;99.90
55693;DHT22;41590;53.366;5.212;2022-08-21T05:20:48;18.20;99.90
55693;DHT22;41590;53.366;5.212;2022-08-21T05:23:38;18.20;99.90
55693;DHT22;41590;53.366;5.212;2022-08-21T05:26:15;18.20;99.90
55693;DHT22;41590;53.366;5.212;2022-08-21T05:28:53;18.20;99.90
55693;DHT22;41590;53.366;5.212;2022-08-21T05:34:29;18.20;99.90
55693;DHT22;41590;53.366;5.212;2022-08-21T05:37:05;18.20;99.90
55693;DHT22;41590;53.366;5.212;2022-08-21T05:39:31;18.20;99.90
55693;DHT22;41590;53.366;5.212;2022-08-21T05:42:00;18.20;99.90
55693;DHT22;41590;53.366;5.212;2022-08-21T05:44:33;18.30;99.90
55693;DHT22;41590;53.366;5.212;2022-08-21T05:47:18;18.30;99.90
55693;DHT22;41590;53.366;5.212;2022-08-21T05:50:08;18.30;99.90
55693;DHT22;41590;53.366;5.212;2022-08-21T05:52:35;18.30;99.90
55693;DHT22;41590;53.366;5.212;2022-08-21T05:55:20;18.30;99.90
55693;DHT22;41590;53.366;5.212;2022-08-21T05:58:14;18.40;99.90
55693;DHT22;41590;53.366;5.212;2022-08-21T06:01:14;18.40;99.90
55693;DHT22;41590;53.366;5.212;2022-08-21T06:03:45;18.50;99.90
55693;DHT22;41590;53.366;5.212;2022-08-21T06:06:17;18.60;99.90
55693;DHT22;41590;53.366;5.212;2022-08-21T06:15:34;18.70;99.90
55693;DHT22;41590;53.366;5.212;2022-08-21T06:18:24;18.70;99.90
55693;DHT22;41590;53.366;5.212;2022-08-21T06:21:18;18.80;99.90
55693;DHT22;41590;53.366;5.212;2022-08-21T06:23:52;18.80;99.90
55693;DHT22;41590;53.366;5.212;2022-08-21T06:26:32;18.90;99.90
55693;DHT22;41590;53.366;5.212;2022-08-21T06:29:12;18.90;99.90
55693;DHT22;41590;53.366;5.212;2022-08-21T06:32:11;19.00;99.90
55693;DHT22;41590;53.366;5.212;2022-08-21T06:34:45;19.10;99.90
55693;DHT22;41590;53.366;5.212;2022-08-21T06:37:23;19.50;99.90
55693;DHT22;41590;53.366;5.212;2022-08-21T06:39:51;19.20;99.90
55693;DHT22;41590;53.366;5.212;2022-08-21T06:42:30;19.30;99.90
55693;DHT22;41590;53.366;5.212;2022-08-21T06:45:06;19.30;99.90
55693;DHT22;41590;53.366;5.212;2022-08-21T06:47:33;19.30;99.90
55693;DHT22;41590;53.366;5.212;2022-08-21T06:50:19;19.30;99.90
55693;DHT22;41590;53.366;5.212;2022-08-21T06:53:01;19.10;99.90
55693;DHT22;41590;53.366;5.212;2022-08-21T06:55:36;19.40;99.90
55693;DHT22;41590;53.366;5.212;2022-08-21T06:58:17;19.50;99.90
55693;DHT22;41590;53.366;5.212;2022-08-21T07:01:11;19.50;99.90
55693;DHT22;41590;53.366;5.212;2022-08-21T07:03:39;20.60;99.90
55693;DHT22;41590;53.366;5.212;2022-08-21T07:06:15;19.60;99.90
55693;DHT22;41590;53.366;5.212;2022-08-21T07:08:43;19.60;99.90
55693;DHT22;41590;53.366;5.212;2022-08-21T07:11:13;19.60;99.90
55693;DHT22;41590;53.366;5.212;2022-08-21T07:13:48;19.40;99.90
55693;DHT22;41590;53.366;5.212;2022-08-21T07:16:20;19.70;99.90
55693;DHT22;41590;53.366;5.212;2022-08-21T07:18:45;19.80;99.90
55693;DHT22;41590;53.366;5.212;2022-08-21T07:23:58;19.90;99.90
55693;DHT22;41590;53.366;5.212;2022-08-21T07:29:48;20.00;99.90
55693;DHT22;41590;53.366;5.212;2022-08-21T07:32:32;20.10;99.90
55693;DHT22;41590;53.366;5.212;2022-08-21T07:38:10;20.20;99.90
55693;DHT22;41590;53.366;5.212;2022-08-21T07:40:36;20.30;99.90
55693;DHT22;41590;53.366;5.212;2022-08-21T07:43:20;20.40;99.90
55693;DHT22;41590;53.366;5.212;2022-08-21T07:45:49;20.50;99.90
55693;DHT22;41590;53.366;5.212;2022-08-21T07:48:35;20.60;99.90
55693;DHT22;41590;53.366;5.212;2022-08-21T07:51:07;20.70;99.90
55693;DHT22;41590;53.366;5.212;2022-08-21T07:53:38;20.90;99.90
55693;DHT22;41590;53.366;5.212;2022-08-21T07:56:20;20.90;99.90
55693;DHT22;41590;53.366;5.212;2022-08-21T07:58:46;21.00;99.90
55693;DHT22;41590;53.366;5.212;2022-08-21T08:01:22;21.00;99.90
55693;DHT22;41590;53.366;5.212;2022-08-21T08:03:49;21.10;99.90
55693;DHT22;41590;53.366;5.212;2022-08-21T08:08:53;21.30;99.90
55693;DHT22;41590;53.366;5.212;2022-08-21T08:11:20;21.40;99.90
55693;DHT22;41590;53.366;5.212;2022-08-21T08:13:52;21.30;99.90
55693;DHT22;41590;53.366;5.212;2022-08-21T08:16:28;21.50;99.90
55693;DHT22;41590;53.366;5.212;2022-08-21T08:22:23;21.50;99.90
55693;DHT22;41590;53.366;5.212;2022-08-21T08:24:52;21.60;99.90
55693;DHT22;41590;53.366;5.212;2022-08-21T08:27:31;21.80;99.90
55693;DHT22;41590;53.366;5.212;2022-08-21T08:30:36;21.90;99.90
55693;DHT22;41590;53.366;5.212;2022-08-21T08:39:14;22.30;99.90
55693;DHT22;41590;53.366;5.212;2022-08-21T08:45:18;22.30;99.90
55693;DHT22;41590;53.366;5.212;2022-08-21T08:48:09;22.00;99.90
55693;DHT22;41590;53.366;5.212;2022-08-21T08:51:06;21.90;99.90
55693;DHT22;41590;53.366;5.212;2022-08-21T09:01:25;22.50;99.90
55693;DHT22;41590;53.366;5.212;2022-08-21T09:04:06;22.50;99.90
55693;DHT22;41590;53.366;5.212;2022-08-21T09:23:25;23.20;99.90
55693;DHT22;41590;53.366;5.212;2022-08-21T09:37:19;23.00;99.90
55693;DHT22;41590;53.366;5.212;2022-08-21T09:44:08;23.20;99.90
55693;DHT22;41590;53.366;5.212;2022-08-21T09:47:05;23.20;99.90
55693;DHT22;41590;53.366;5.212;2022-08-21T09:56:04;23.70;99.90
55693;DHT22;41590;53.366;5.212;2022-08-21T09:58:56;23.70;99.90
55693;DHT22;41590;53.366;5.212;2022-08-21T10:01:29;24.00;99.90
55693;DHT22;41590;53.366;5.212;2022-08-21T10:04:21;23.90;99.90
55693;DHT22;41590;53.366;5.212;2022-08-21T10:18:39;23.90;99.90
55693;DHT22;41590;53.366;5.212;2022-08-21T10:21:55;24.50;99.90
55693;DHT22;41590;53.366;5.212;2022-08-21T10:24:29;24.40;99.90
55693;DHT22;41590;53.366;5.212;2022-08-21T11:07:08;24.10;99.90
55693;DHT22;41590;53.366;5.212;2022-08-21T11:10:05;24.20;99.90
55693;DHT22;41590;53.366;5.212;2022-08-21T11:16:33;24.20;99.90
55693;DHT22;41590;53.366;5.212;2022-08-21T11:28:08;24.40;99.90
55693;DHT22;41590;53.366;5.212;2022-08-21T11:43:27;24.50;99.90
55693;DHT22;41590;53.366;5.212;2022-08-21T11:56:35;24.10;99.90
55693;DHT22;41590;53.366;5.212;2022-08-21T11:59:36;24.20;99.90
55693;DHT22;41590;53.366;5.212;2022-08-21T12:06:13;24.30;99.90
55693;DHT22;41590;53.366;5.212;2022-08-21T12:09:06;24.30;99.90
55693;DHT22;41590;53.366;5.212;2022-08-21T12:14:49;24.30;99.90
55693;DHT22;41590;53.366;5.212;2022-08-21T12:27:13;24.00;99.90
55693;DHT22;41590;53.366;5.212;2022-08-21T12:33:52;23.70;99.90
55693;DHT22;41590;53.366;5.212;2022-08-21T12:36:49;23.70;99.90
55693;DHT22;41590;53.366;5.212;2022-08-21T12:42:47;23.50;99.90
55693;DHT22;41590;53.366;5.212;2022-08-21T12:55:28;23.70;99.90
55693;DHT22;41590;53.366;5.212;2022-08-21T13:02:16;23.70;99.90
55693;DHT22;41590;53.366;5.212;2022-08-21T13:05:01;23.70;99.90
55693;DHT22;41590;53.366;5.212;2022-08-21T13:07:55;23.70;99.90
55693;DHT22;41590;53.366;5.212;2022-08-21T13:13:43;23.70;99.90
55693;DHT22;41590;53.366;5.212;2022-08-21T13:22:59;23.50;99.90
55693;DHT22;41590;53.366;5.212;2022-08-21T13:25:58;23.70;99.90
55693;DHT22;41590;53.366;5.212;2022-08-21T13:38:42;23.50;99.90
55693;DHT22;41590;53.366;5.212;2022-08-21T13:41:40;23.50;99.90
55693;DHT22;41590;53.366;5.212;2022-08-21T13:44:44;23.50;99.90
55693;DHT22;41590;53.366;5.212;2022-08-21T13:47:40;23.50;99.90
55693;DHT22;41590;53.366;5.212;2022-08-21T13:50:21;23.40;99.90
55693;DHT22;41590;53.366;5.212;2022-08-21T13:53:18;23.50;99.90
55693;DHT22;41590;53.366;5.212;2022-08-21T13:56:07;23.50;99.90
55693;DHT22;41590;53.366;5.212;2022-08-21T14:01:55;23.40;99.90
55693;DHT22;41590;53.366;5.212;2022-08-21T14:04:42;23.40;99.90
55693;DHT22;41590;53.366;5.212;2022-08-21T14:07:40;23.40;99.90
55693;DHT22;41590;53.366;5.212;2022-08-21T14:14:02;23.20;99.90
55693;DHT22;41590;53.366;5.212;2022-08-21T14:17:07;23.40;99.90
55693;DHT22;41590;53.366;5.212;2022-08-21T14:30:29;23.40;99.90
55693;DHT22;41590;53.366;5.212;2022-08-21T14:33:26;23.30;99.90
55693;DHT22;41590;53.366;5.212;2022-08-21T14:39:41;23.30;99.90
55693;DHT22;41590;53.366;5.212;2022-08-21T14:45:30;23.40;99.90
55693;DHT22;41590;53.366;5.212;2022-08-21T14:48:24;23.40;99.90
55693;DHT22;41590;53.366;5.212;2022-08-21T14:51:00;23.30;99.90
55693;DHT22;41590;53.366;5.212;2022-08-21T14:53:32;23.40;99.90
55693;DHT22;41590;53.366;5.212;2022-08-21T14:56:29;23.20;99.90
55693;DHT22;41590;53.366;5.212;2022-08-21T15:03:09;23.10;99.90
55693;DHT22;41590;53.366;5.212;2022-08-21T15:09:05;22.90;99.90
55693;DHT22;41590;53.366;5.212;2022-08-21T15:14:51;23.10;99.90
55693;DHT22;41590;53.366;5.212;2022-08-21T15:17:33;23.10;99.90
55693;DHT22;41590;53.366;5.212;2022-08-21T16:27:36;22.20;99.90
55693;DHT22;41590;53.366;5.212;2022-08-21T16:36:54;22.20;99.90
55693;DHT22;41590;53.366;5.212;2022-08-21T16:39:30;22.10;99.90
55693;DHT22;41590;53.366;5.212;2022-08-21T16:42:06;22.10;99.90
55693;DHT22;41590;53.366;5.212;2022-08-21T16:44:41;22.20;99.90
55693;DHT22;41590;53.366;5.212;2022-08-21T16:47:09;22.20;99.90
55693;DHT22;41590;53.366;5.212;2022-08-21T16:49:35;22.20;99.90
55693;DHT22;41590;53.366;5.212;2022-08-21T16:52:10;22.20;99.90
55693;DHT22;41590;53.366;5.212;2022-08-21T16:54:37;22.10;99.90
55693;DHT22;41590;53.366;5.212;2022-08-21T16:57:03;22.00;99.90
55693;DHT22;41590;53.366;5.212;2022-08-21T16:59:35;22.10;99.90
55693;DHT22;41590;53.366;5.212;2022-08-21T17:05:36;21.80;99.90
55693;DHT22;41590;53.366;5.212;2022-08-21T17:08:28;21.80;99.90
55693;DHT22;41590;53.366;5.212;2022-08-21T17:11:59;21.80;99.90
55693;DHT22;41590;53.366;5.212;2022-08-21T17:14:38;21.60;99.90
55693;DHT22;41590;53.366;5.212;2022-08-21T17:23:57;21.50;99.90
55693;DHT22;41590;53.366;5.212;2022-08-21T17:30:36;21.20;99.90
55693;DHT22;41590;53.366;5.212;2022-08-21T17:37:07;21.10;99.90
55693;DHT22;41590;53.366;5.212;2022-08-21T17:40:12;20.80;99.90
55693;DHT22;41590;53.366;5.212;2022-08-21T17:42:56;20.80;99.90
55693;DHT22;41590;53.366;5.212;2022-08-21T17:45:22;20.70;99.90
55693;DHT22;41590;53.366;5.212;2022-08-21T17:48:07;20.60;99.90
55693;DHT22;41590;53.366;5.212;2022-08-21T17:54:19;20.40;99.90
55693;DHT22;41590;53.366;5.212;2022-08-21T17:57:07;20.30;99.90
55693;DHT22;41590;53.366;5.212;2022-08-21T17:59:56;20.20;99.90
55693;DHT22;41590;53.366;5.212;2022-08-21T18:02:48;20.20;99.90
55693;DHT22;41590;53.366;5.212;2022-08-21T18:09:10;19.90;99.90
55693;DHT22;41590;53.366;5.212;2022-08-21T18:12:12;19.90;99.90
55693;DHT22;41590;53.366;5.212;2022-08-21T18:14:42;19.70;99.90
55693;DHT22;41590;53.366;5.212;2022-08-21T18:17:30;19.70;99.90
55693;DHT22;41590;53.366;5.212;2022-08-21T18:59:57;18.50;99.90
55693;DHT22;41590;53.366;5.212;2022-08-21T19:02:37;18.50;99.90
55693;DHT22;41590;53.366;5.212;2022-08-21T19:05:06;18.50;99.90
55693;DHT22;41590;53.366;5.212;2022-08-21T19:07:54;18.40;99.90
55693;DHT22;41590;53.366;5.212;2022-08-21T19:25:30;17.90;99.90
55693;DHT22;41590;53.366;5.212;2022-08-21T20:11:07;16.80;99.90
55693;DHT22;41590;53.366;5.212;2022-08-21T20:13:38;16.80;99.90
55693;DHT22;41590;53.366;5.212;2022-08-21T20:19:58;16.70;99.90
55693;DHT22;41590;53.366;5.212;2022-08-21T20:22:26;16.60;99.90
55693;DHT22;41590;53.366;5.212;2022-08-21T20:32:26;16.60;99.90
55693;DHT22;41590;53.366;5.212;2022-08-21T20:35:15;16.50;99.90
55693;DHT22;41590;53.366;5.212;2022-08-21T20:37:57;16.40;99.90
55693;DHT22;41590;53.366;5.212;2022-08-21T20:40:33;16.40;99.90
55693;DHT22;41590;53.366;5.212;2022-08-21T20:43:20;16.40;99.90
55693;DHT22;41590;53.366;5.212;2022-08-21T20:45:52;16.30;99.90
55693;DHT22;41590;53.366;5.212;2022-08-21T20:48:30;16.20;99.90
55693;DHT22;41590;53.366;5.212;2022-08-21T20:51:27;16.20;99.90
55693;DHT22;41590;53.366;5.212;2022-08-21T20:58:05;16.10;99.90
55693;DHT22;41590;53.366;5.212;2022-08-21T21:00:42;16.00;99.90
55693;DHT22;41590;53.366;5.212;2022-08-21T21:06:32;16.00;99.90
55693;DHT22;41590;53.366;5.212;2022-08-21T21:09:44;15.90;99.90
55693;DHT22;41590;53.366;5.212;2022-08-21T21:12:49;15.80;99.90
55693;DHT22;41590;53.366;5.212;2022-08-21T21:15:35;15.80;99.90
55693;DHT22;41590;53.366;5.212;2022-08-21T21:22:16;15.70;99.90
55693;DHT22;41590;53.366;5.212;2022-08-21T21:24:51;15.60;99.90
55693;DHT22;41590;53.366;5.212;2022-08-21T21:27:48;15.60;99.90
55693;DHT22;41590;53.366;5.212;2022-08-21T21:30:25;15.50;99.90
55693;DHT22;41590;53.366;5.212;2022-08-21T21:32:52;15.50;99.90
55693;DHT22;41590;53.366;5.212;2022-08-21T21:35:22;15.50;99.90
55693;DHT22;41590;53.366;5.212;2022-08-21T21:41:10;15.40;99.90
55693;DHT22;41590;53.366;5.212;2022-08-21T21:52:59;15.30;99.90
55693;DHT22;41590;53.366;5.212;2022-08-21T21:55:54;15.30;99.90
55693;DHT22;41590;53.366;5.212;2022-08-21T22:01:21;15.20;99.90
55693;DHT22;41590;53.366;5.212;2022-08-21T22:07:08;15.10;99.90
55693;DHT22;41590;53.366;5.212;2022-08-21T22:09:53;15.10;99.90
55693;DHT22;41590;53.366;5.212;2022-08-21T22:15:01;15.10;99.90
55693;DHT22;41590;53.366;5.212;2022-08-21T22:17:45;15.10;99.90
55693;DHT22;41590;53.366;5.212;2022-08-21T22:20:41;15.00;99.90
55693;DHT22;41590;53.366;5.212;2022-08-21T22:23:18;15.00;99.90
55693;DHT22;41590;53.366;5.212;2022-08-21T22:25:58;15.00;99.90
55693;DHT22;41590;53.366;5.212;2022-08-21T22:28:28;15.00;99.90
55693;DHT22;41590;53.366;5.212;2022-08-21T22:33:38;15.00;99.90
55693;DHT22;41590;53.366;5.212;2022-08-21T22:36:19;15.00;99.90
55693;DHT22;41590;53.366;5.212;2022-08-21T22:38:47;15.00;99.90
55693;DHT22;41590;53.366;5.212;2022-08-21T22:41:27;15.00;99.90
55693;DHT22;41590;53.366;5.212;2022-08-21T22:44:05;15.00;99.90
55693;DHT22;41590;53.366;5.212;2022-08-21T22:46:44;15.00;99.90
55693;DHT22;41590;53.366;5.212;2022-08-21T22:49:43;15.00;99.90
55693;DHT22;41590;53.366;5.212;2022-08-21T22:52:19;15.00;99.90
55693;DHT22;41590;53.366;5.212;2022-08-21T22:54:46;15.10;99.90
55693;DHT22;41590;53.366;5.212;2022-08-21T22:57:45;15.10;99.90
55693;DHT22;41590;53.366;5.212;2022-08-21T23:00:38;15.00;99.90
55693;DHT22;41590;53.366;5.212;2022-08-21T23:03:06;15.10;99.90
55693;DHT22;41590;53.366;5.212;2022-08-21T23:05:34;15.10;99.90
55693;DHT22;41590;53.366;5.212;2022-08-21T23:08:25;15.10;99.90
55693;DHT22;41590;53.366;5.212;2022-08-21T23:11:12;15.10;99.90
55693;DHT22;41590;53.366;5.212;2022-08-21T23:13:45;15.10;99.90
55693;DHT22;41590;53.366;5.212;2022-08-21T23:19:41;15.10;99.90
55693;DHT22;41590;53.366;5.212;2022-08-21T23:22:38;15.00;99.90
55693;DHT22;41590;53.366;5.212;2022-08-21T23:28:07;15.10;99.90
55693;DHT22;41590;53.366;5.212;2022-08-21T23:31:20;15.00;99.90
55693;DHT22;41590;53.366;5.212;2022-08-21T23:36:47;15.10;99.90
55693;DHT22;41590;53.366;5.212;2022-08-21T23:40:07;15.10;99.90
55693;DHT22;41590;53.366;5.212;2022-08-21T23:51:34;15.20;99.90
55693;DHT22;41590;53.366;5.212;2022-08-21T23:57:06;15.20;99.90
55693;DHT22;41590;53.366;5.212;2022-08-21T23:59:46;15.20;99.90
